sensor_id;sensor_type;location;lat;lon;timestamp;P1;durP1;ratioP1;P2;durP2;ratioP2
31724;SDS011;18306;40.960;14.836;2024-02-21T00:01:58;25.92;;;16.77;;
31724;SDS011;18306;40.960;14.836;2024-02-21T00:04:25;21.55;;;14.82;;
31724;SDS011;18306;40.960;14.836;2024-02-21T00:06:52;19.08;;;13.75;;
31724;SDS011;18306;40.960;14.836;2024-02-21T00:09:19;21.15;;;15.15;;
31724;SDS011;18306;40.960;14.836;2024-02-21T00:11:46;25.23;;;14.05;;
31724;SDS011;18306;40.960;14.836;2024-02-21T00:14:13;22.92;;;15.07;;
31724;SDS011;18306;40.960;14.836;2024-02-21T00:16:50;19.63;;;15.20;;
31724;SDS011;18306;40.960;14.836;2024-02-21T00:19:17;16.02;;;11.98;;
31724;SDS011;18306;40.960;14.836;2024-02-21T00:21:44;14.88;;;12.25;;
31724;SDS011;18306;40.960;14.836;2024-02-21T00:24:11;20.75;;;12.23;;
31724;SDS011;18306;40.960;14.836;2024-02-21T00:26:37;15.23;;;11.38;;
31724;SDS011;18306;40.960;14.836;2024-02-21T00:29:05;18.00;;;13.32;;
31724;SDS011;18306;40.960;14.836;2024-02-21T00:31:31;20.45;;;13.93;;
31724;SDS011;18306;40.960;14.836;2024-02-21T00:33:58;18.48;;;12.23;;
31724;SDS011;18306;40.960;14.836;2024-02-21T00:36:25;21.88;;;13.80;;
31724;SDS011;18306;40.960;14.836;2024-02-21T00:38:52;22.60;;;15.00;;
31724;SDS011;18306;40.960;14.836;2024-02-21T00:41:19;17.77;;;12.73;;
31724;SDS011;18306;40.960;14.836;2024-02-21T00:43:47;19.48;;;13.30;;
31724;SDS011;18306;40.960;14.836;2024-02-21T00:46:16;19.90;;;12.85;;
31724;SDS011;18306;40.960;14.836;2024-02-21T00:48:43;19.23;;;13.57;;
31724;SDS011;18306;40.960;14.836;2024-02-21T00:51:10;16.95;;;11.48;;
31724;SDS011;18306;40.960;14.836;2024-02-21T00:53:37;11.95;;;9.35;;
31724;SDS011;18306;40.960;14.836;2024-02-21T00:56:05;15.10;;;10.45;;
31724;SDS011;18306;40.960;14.836;2024-02-21T00:58:32;15.00;;;10.63;;
31724;SDS011;18306;40.960;14.836;2024-02-21T01:01:00;14.43;;;10.30;;
31724;SDS011;18306;40.960;14.836;2024-02-21T01:03:27;17.95;;;10.90;;
31724;SDS011;18306;40.960;14.836;2024-02-21T01:05:54;12.93;;;9.63;;
31724;SDS011;18306;40.960;14.836;2024-02-21T01:08:21;12.80;;;8.30;;
31724;SDS011;18306;40.960;14.836;2024-02-21T01:10:49;12.30;;;9.15;;
31724;SDS011;18306;40.960;14.836;2024-02-21T01:13:15;10.93;;;9.00;;
31724;SDS011;18306;40.960;14.836;2024-02-21T01:15:42;13.50;;;8.82;;
31724;SDS011;18306;40.960;14.836;2024-02-21T01:18:09;13.52;;;8.98;;
31724;SDS011;18306;40.960;14.836;2024-02-21T01:20:36;11.45;;;7.85;;
31724;SDS011;18306;40.960;14.836;2024-02-21T01:23:03;13.43;;;9.52;;
31724;SDS011;18306;40.960;14.836;2024-02-21T01:25:31;17.25;;;10.93;;
31724;SDS011;18306;40.960;14.836;2024-02-21T01:27:57;17.00;;;10.77;;
31724;SDS011;18306;40.960;14.836;2024-02-21T01:30:24;13.68;;;9.88;;
31724;SDS011;18306;40.960;14.836;2024-02-21T01:32:52;16.90;;;10.82;;
31724;SDS011;18306;40.960;14.836;2024-02-21T01:35:19;10.82;;;7.75;;
31724;SDS011;18306;40.960;14.836;2024-02-21T01:37:46;11.38;;;7.78;;
31724;SDS011;18306;40.960;14.836;2024-02-21T01:40:14;11.25;;;7.78;;
31724;SDS011;18306;40.960;14.836;2024-02-21T01:42:41;11.30;;;7.45;;
31724;SDS011;18306;40.960;14.836;2024-02-21T01:45:08;11.80;;;6.78;;
31724;SDS011;18306;40.960;14.836;2024-02-21T01:47:36;12.10;;;7.85;;
31724;SDS011;18306;40.960;14.836;2024-02-21T01:50:04;12.77;;;8.40;;
31724;SDS011;18306;40.960;14.836;2024-02-21T01:52:31;11.27;;;7.97;;
31724;SDS011;18306;40.960;14.836;2024-02-21T01:54:59;11.65;;;7.25;;
31724;SDS011;18306;40.960;14.836;2024-02-21T01:57:26;11.57;;;8.77;;
31724;SDS011;18306;40.960;14.836;2024-02-21T01:59:55;12.40;;;9.02;;
31724;SDS011;18306;40.960;14.836;2024-02-21T02:02:22;10.10;;;7.75;;
31724;SDS011;18306;40.960;14.836;2024-02-21T02:04:50;13.10;;;8.38;;
31724;SDS011;18306;40.960;14.836;2024-02-21T02:07:18;10.15;;;7.20;;
31724;SDS011;18306;40.960;14.836;2024-02-21T02:09:45;9.43;;;7.30;;
31724;SDS011;18306;40.960;14.836;2024-02-21T02:12:12;18.45;;;11.75;;
31724;SDS011;18306;40.960;14.836;2024-02-21T02:14:40;15.15;;;11.30;;
31724;SDS011;18306;40.960;14.836;2024-02-21T02:17:07;16.20;;;12.38;;
31724;SDS011;18306;40.960;14.836;2024-02-21T02:19:35;21.65;;;14.98;;
31724;SDS011;18306;40.960;14.836;2024-02-21T02:22:22;25.25;;;15.25;;
31724;SDS011;18306;40.960;14.836;2024-02-21T02:24:51;26.95;;;17.10;;
31724;SDS011;18306;40.960;14.836;2024-02-21T02:27:19;29.52;;;17.42;;
31724;SDS011;18306;40.960;14.836;2024-02-21T02:29:46;30.02;;;18.30;;
31724;SDS011;18306;40.960;14.836;2024-02-21T02:32:13;27.92;;;17.63;;
31724;SDS011;18306;40.960;14.836;2024-02-21T02:34:39;29.52;;;17.45;;
31724;SDS011;18306;40.960;14.836;2024-02-21T02:37:06;30.65;;;17.88;;
31724;SDS011;18306;40.960;14.836;2024-02-21T02:39:33;23.83;;;15.60;;
31724;SDS011;18306;40.960;14.836;2024-02-21T02:42:01;30.25;;;16.90;;
31724;SDS011;18306;40.960;14.836;2024-02-21T02:44:28;30.40;;;17.88;;
31724;SDS011;18306;40.960;14.836;2024-02-21T02:46:55;33.17;;;19.13;;
31724;SDS011;18306;40.960;14.836;2024-02-21T02:49:22;26.15;;;18.33;;
31724;SDS011;18306;40.960;14.836;2024-02-21T02:51:49;27.23;;;18.85;;
31724;SDS011;18306;40.960;14.836;2024-02-21T02:54:16;29.35;;;17.48;;
31724;SDS011;18306;40.960;14.836;2024-02-21T02:56:43;25.20;;;16.67;;
31724;SDS011;18306;40.960;14.836;2024-02-21T02:59:10;25.73;;;18.10;;
31724;SDS011;18306;40.960;14.836;2024-02-21T03:01:37;25.67;;;16.50;;
31724;SDS011;18306;40.960;14.836;2024-02-21T03:04:04;25.48;;;18.02;;
31724;SDS011;18306;40.960;14.836;2024-02-21T03:06:31;27.15;;;15.82;;
31724;SDS011;18306;40.960;14.836;2024-02-21T03:08:59;22.45;;;15.25;;
31724;SDS011;18306;40.960;14.836;2024-02-21T03:11:26;22.02;;;14.90;;
31724;SDS011;18306;40.960;14.836;2024-02-21T03:13:55;21.70;;;13.43;;
31724;SDS011;18306;40.960;14.836;2024-02-21T03:16:25;22.92;;;16.13;;
31724;SDS011;18306;40.960;14.836;2024-02-21T03:18:52;22.67;;;15.82;;
31724;SDS011;18306;40.960;14.836;2024-02-21T03:21:19;28.05;;;16.45;;
31724;SDS011;18306;40.960;14.836;2024-02-21T03:23:46;22.23;;;14.98;;
31724;SDS011;18306;40.960;14.836;2024-02-21T03:26:13;23.95;;;15.65;;
31724;SDS011;18306;40.960;14.836;2024-02-21T03:28:43;19.95;;;13.85;;
31724;SDS011;18306;40.960;14.836;2024-02-21T03:31:13;15.65;;;11.55;;
31724;SDS011;18306;40.960;14.836;2024-02-21T03:33:41;19.95;;;12.65;;
31724;SDS011;18306;40.960;14.836;2024-02-21T03:36:15;14.63;;;11.30;;
31724;SDS011;18306;40.960;14.836;2024-02-21T03:38:42;16.27;;;12.45;;
31724;SDS011;18306;40.960;14.836;2024-02-21T03:41:09;21.73;;;12.63;;
31724;SDS011;18306;40.960;14.836;2024-02-21T03:43:39;15.07;;;11.65;;
31724;SDS011;18306;40.960;14.836;2024-02-21T03:46:06;20.65;;;12.90;;
31724;SDS011;18306;40.960;14.836;2024-02-21T03:48:33;17.40;;;11.70;;
31724;SDS011;18306;40.960;14.836;2024-02-21T03:51:00;11.57;;;9.05;;
31724;SDS011;18306;40.960;14.836;2024-02-21T03:53:27;12.68;;;9.85;;
31724;SDS011;18306;40.960;14.836;2024-02-21T03:55:55;15.07;;;11.18;;
31724;SDS011;18306;40.960;14.836;2024-02-21T03:58:22;18.05;;;11.55;;
31724;SDS011;18306;40.960;14.836;2024-02-21T04:00:49;13.93;;;10.57;;
31724;SDS011;18306;40.960;14.836;2024-02-21T04:03:16;17.40;;;11.60;;
31724;SDS011;18306;40.960;14.836;2024-02-21T04:05:43;16.00;;;10.90;;
31724;SDS011;18306;40.960;14.836;2024-02-21T04:08:11;14.98;;;10.10;;
31724;SDS011;18306;40.960;14.836;2024-02-21T04:10:38;14.20;;;10.43;;
31724;SDS011;18306;40.960;14.836;2024-02-21T04:13:06;14.18;;;9.98;;
31724;SDS011;18306;40.960;14.836;2024-02-21T04:15:33;14.40;;;10.88;;
31724;SDS011;18306;40.960;14.836;2024-02-21T04:18:01;14.57;;;9.60;;
31724;SDS011;18306;40.960;14.836;2024-02-21T04:20:29;15.35;;;11.77;;
31724;SDS011;18306;40.960;14.836;2024-02-21T04:22:56;14.27;;;10.02;;
31724;SDS011;18306;40.960;14.836;2024-02-21T04:25:23;16.33;;;11.82;;
31724;SDS011;18306;40.960;14.836;2024-02-21T04:27:51;14.88;;;10.85;;
31724;SDS011;18306;40.960;14.836;2024-02-21T04:30:17;18.02;;;12.52;;
31724;SDS011;18306;40.960;14.836;2024-02-21T04:32:45;16.80;;;11.48;;
31724;SDS011;18306;40.960;14.836;2024-02-21T04:35:12;16.50;;;12.13;;
31724;SDS011;18306;40.960;14.836;2024-02-21T04:37:39;16.83;;;10.00;;
31724;SDS011;18306;40.960;14.836;2024-02-21T04:40:06;16.70;;;10.50;;
31724;SDS011;18306;40.960;14.836;2024-02-21T04:42:33;14.45;;;10.73;;
31724;SDS011;18306;40.960;14.836;2024-02-21T04:45:00;16.13;;;11.85;;
31724;SDS011;18306;40.960;14.836;2024-02-21T04:47:27;16.08;;;11.07;;
31724;SDS011;18306;40.960;14.836;2024-02-21T04:49:55;17.30;;;10.80;;
31724;SDS011;18306;40.960;14.836;2024-02-21T04:52:22;16.70;;;12.00;;
31724;SDS011;18306;40.960;14.836;2024-02-21T04:54:49;14.60;;;11.55;;
31724;SDS011;18306;40.960;14.836;2024-02-21T04:57:16;15.70;;;10.35;;
31724;SDS011;18306;40.960;14.836;2024-02-21T04:59:46;13.32;;;10.07;;
31724;SDS011;18306;40.960;14.836;2024-02-21T05:02:16;17.80;;;12.23;;
31724;SDS011;18306;40.960;14.836;2024-02-21T05:04:43;16.42;;;12.20;;
31724;SDS011;18306;40.960;14.836;2024-02-21T05:07:10;17.40;;;10.85;;
31724;SDS011;18306;40.960;14.836;2024-02-21T05:09:38;14.88;;;11.05;;
31724;SDS011;18306;40.960;14.836;2024-02-21T05:12:05;14.80;;;11.35;;
31724;SDS011;18306;40.960;14.836;2024-02-21T05:14:32;15.40;;;10.88;;
31724;SDS011;18306;40.960;14.836;2024-02-21T05:16:59;14.98;;;10.45;;
31724;SDS011;18306;40.960;14.836;2024-02-21T05:19:26;20.50;;;13.25;;
31724;SDS011;18306;40.960;14.836;2024-02-21T05:21:53;20.55;;;13.88;;
31724;SDS011;18306;40.960;14.836;2024-02-21T05:24:20;19.25;;;14.70;;
31724;SDS011;18306;40.960;14.836;2024-02-21T05:26:47;16.75;;;10.95;;
31724;SDS011;18306;40.960;14.836;2024-02-21T05:29:14;20.90;;;14.63;;
31724;SDS011;18306;40.960;14.836;2024-02-21T05:34:20;19.80;;;14.73;;
31724;SDS011;18306;40.960;14.836;2024-02-21T05:36:57;26.35;;;15.93;;
31724;SDS011;18306;40.960;14.836;2024-02-21T05:39:26;23.38;;;15.25;;
31724;SDS011;18306;40.960;14.836;2024-02-21T05:41:52;25.35;;;17.05;;
31724;SDS011;18306;40.960;14.836;2024-02-21T05:44:19;27.35;;;16.88;;
31724;SDS011;18306;40.960;14.836;2024-02-21T05:46:48;23.85;;;15.48;;
31724;SDS011;18306;40.960;14.836;2024-02-21T05:49:15;18.95;;;13.85;;
31724;SDS011;18306;40.960;14.836;2024-02-21T05:51:42;21.52;;;13.95;;
31724;SDS011;18306;40.960;14.836;2024-02-21T05:54:09;17.25;;;12.68;;
31724;SDS011;18306;40.960;14.836;2024-02-21T05:56:36;18.83;;;13.50;;
31724;SDS011;18306;40.960;14.836;2024-02-21T05:59:03;19.58;;;13.20;;
31724;SDS011;18306;40.960;14.836;2024-02-21T06:01:30;19.95;;;12.77;;
31724;SDS011;18306;40.960;14.836;2024-02-21T06:03:57;14.68;;;10.63;;
31724;SDS011;18306;40.960;14.836;2024-02-21T06:06:24;15.63;;;9.85;;
31724;SDS011;18306;40.960;14.836;2024-02-21T06:08:51;19.00;;;11.73;;
31724;SDS011;18306;40.960;14.836;2024-02-21T06:11:18;18.83;;;13.10;;
31724;SDS011;18306;40.960;14.836;2024-02-21T06:13:46;18.63;;;14.23;;
31724;SDS011;18306;40.960;14.836;2024-02-21T06:16:17;19.75;;;13.00;;
31724;SDS011;18306;40.960;14.836;2024-02-21T06:18:44;19.75;;;13.65;;
31724;SDS011;18306;40.960;14.836;2024-02-21T06:21:11;20.63;;;15.00;;
31724;SDS011;18306;40.960;14.836;2024-02-21T06:23:38;21.92;;;14.95;;
31724;SDS011;18306;40.960;14.836;2024-02-21T06:26:05;25.17;;;16.92;;
31724;SDS011;18306;40.960;14.836;2024-02-21T06:28:32;24.77;;;15.05;;
31724;SDS011;18306;40.960;14.836;2024-02-21T06:30:59;18.45;;;13.45;;
31724;SDS011;18306;40.960;14.836;2024-02-21T06:33:26;20.98;;;13.32;;
31724;SDS011;18306;40.960;14.836;2024-02-21T06:35:53;25.05;;;15.80;;
31724;SDS011;18306;40.960;14.836;2024-02-21T06:38:20;22.25;;;15.40;;
31724;SDS011;18306;40.960;14.836;2024-02-21T06:40:47;25.90;;;17.73;;
31724;SDS011;18306;40.960;14.836;2024-02-21T06:43:18;28.30;;;18.48;;
31724;SDS011;18306;40.960;14.836;2024-02-21T06:45:46;45.70;;;37.22;;
31724;SDS011;18306;40.960;14.836;2024-02-21T06:50:47;34.38;;;22.48;;
31724;SDS011;18306;40.960;14.836;2024-02-21T06:53:14;30.45;;;19.92;;
31724;SDS011;18306;40.960;14.836;2024-02-21T06:55:41;37.60;;;24.63;;
31724;SDS011;18306;40.960;14.836;2024-02-21T06:58:08;36.55;;;24.23;;
31724;SDS011;18306;40.960;14.836;2024-02-21T07:00:38;32.67;;;21.77;;
31724;SDS011;18306;40.960;14.836;2024-02-21T07:03:06;20.95;;;13.90;;
31724;SDS011;18306;40.960;14.836;2024-02-21T07:05:33;19.67;;;13.32;;
31724;SDS011;18306;40.960;14.836;2024-02-21T07:08:00;23.60;;;15.57;;
31724;SDS011;18306;40.960;14.836;2024-02-21T07:10:29;29.90;;;19.83;;
31724;SDS011;18306;40.960;14.836;2024-02-21T07:12:56;22.48;;;17.02;;
31724;SDS011;18306;40.960;14.836;2024-02-21T07:15:23;28.30;;;18.48;;
31724;SDS011;18306;40.960;14.836;2024-02-21T07:17:52;25.20;;;19.95;;
31724;SDS011;18306;40.960;14.836;2024-02-21T07:20:20;25.05;;;19.20;;
31724;SDS011;18306;40.960;14.836;2024-02-21T07:22:47;26.83;;;19.08;;
31724;SDS011;18306;40.960;14.836;2024-02-21T07:25:14;18.88;;;14.68;;
31724;SDS011;18306;40.960;14.836;2024-02-21T07:27:42;21.95;;;14.13;;
31724;SDS011;18306;40.960;14.836;2024-02-21T07:30:10;20.98;;;14.32;;
31724;SDS011;18306;40.960;14.836;2024-02-21T07:32:37;18.70;;;14.65;;
31724;SDS011;18306;40.960;14.836;2024-02-21T07:35:04;27.05;;;17.52;;
31724;SDS011;18306;40.960;14.836;2024-02-21T07:37:31;29.55;;;20.77;;
31724;SDS011;18306;40.960;14.836;2024-02-21T07:39:58;41.13;;;23.83;;
31724;SDS011;18306;40.960;14.836;2024-02-21T07:42:25;36.60;;;21.38;;
31724;SDS011;18306;40.960;14.836;2024-02-21T07:44:52;27.38;;;15.55;;
31724;SDS011;18306;40.960;14.836;2024-02-21T07:47:19;19.25;;;12.40;;
31724;SDS011;18306;40.960;14.836;2024-02-21T07:49:47;16.88;;;11.15;;
31724;SDS011;18306;40.960;14.836;2024-02-21T07:52:15;15.20;;;8.75;;
31724;SDS011;18306;40.960;14.836;2024-02-21T07:54:42;10.80;;;8.65;;
31724;SDS011;18306;40.960;14.836;2024-02-21T07:57:10;14.77;;;11.00;;
31724;SDS011;18306;40.960;14.836;2024-02-21T07:59:37;14.02;;;9.60;;
31724;SDS011;18306;40.960;14.836;2024-02-21T08:02:04;15.60;;;10.85;;
31724;SDS011;18306;40.960;14.836;2024-02-21T08:04:33;16.08;;;10.63;;
31724;SDS011;18306;40.960;14.836;2024-02-21T08:07:00;12.18;;;10.35;;
31724;SDS011;18306;40.960;14.836;2024-02-21T08:09:30;14.98;;;9.75;;
31724;SDS011;18306;40.960;14.836;2024-02-21T08:11:57;12.80;;;9.23;;
31724;SDS011;18306;40.960;14.836;2024-02-21T08:14:25;10.13;;;7.45;;
31724;SDS011;18306;40.960;14.836;2024-02-21T08:16:52;12.65;;;8.75;;
31724;SDS011;18306;40.960;14.836;2024-02-21T08:19:20;13.48;;;9.68;;
31724;SDS011;18306;40.960;14.836;2024-02-21T08:21:48;13.38;;;9.00;;
31724;SDS011;18306;40.960;14.836;2024-02-21T08:24:15;9.40;;;6.40;;
31724;SDS011;18306;40.960;14.836;2024-02-21T08:26:43;11.07;;;6.68;;
31724;SDS011;18306;40.960;14.836;2024-02-21T08:29:13;10.90;;;6.20;;
31724;SDS011;18306;40.960;14.836;2024-02-21T08:31:40;10.25;;;5.18;;
31724;SDS011;18306;40.960;14.836;2024-02-21T08:34:07;10.27;;;5.13;;
31724;SDS011;18306;40.960;14.836;2024-02-21T08:36:34;8.75;;;4.75;;
31724;SDS011;18306;40.960;14.836;2024-02-21T08:39:02;8.65;;;5.38;;
31724;SDS011;18306;40.960;14.836;2024-02-21T08:41:33;11.02;;;5.93;;
31724;SDS011;18306;40.960;14.836;2024-02-21T08:44:00;7.07;;;4.95;;
31724;SDS011;18306;40.960;14.836;2024-02-21T08:46:27;11.25;;;5.90;;
31724;SDS011;18306;40.960;14.836;2024-02-21T08:48:54;8.80;;;5.18;;
31724;SDS011;18306;40.960;14.836;2024-02-21T08:51:21;16.45;;;9.55;;
31724;SDS011;18306;40.960;14.836;2024-02-21T08:53:48;8.40;;;6.07;;
31724;SDS011;18306;40.960;14.836;2024-02-21T08:56:16;9.85;;;6.22;;
31724;SDS011;18306;40.960;14.836;2024-02-21T08:58:43;10.95;;;7.18;;
31724;SDS011;18306;40.960;14.836;2024-02-21T09:01:10;25.08;;;15.20;;
31724;SDS011;18306;40.960;14.836;2024-02-21T09:03:38;8.85;;;6.00;;
31724;SDS011;18306;40.960;14.836;2024-02-21T09:06:07;9.38;;;5.47;;
31724;SDS011;18306;40.960;14.836;2024-02-21T09:08:36;10.27;;;5.50;;
31724;SDS011;18306;40.960;14.836;2024-02-21T09:11:05;8.20;;;5.00;;
31724;SDS011;18306;40.960;14.836;2024-02-21T09:13:34;8.73;;;6.30;;
31724;SDS011;18306;40.960;14.836;2024-02-21T09:16:01;11.43;;;6.05;;
31724;SDS011;18306;40.960;14.836;2024-02-21T09:18:29;7.13;;;4.22;;
31724;SDS011;18306;40.960;14.836;2024-02-21T09:20:56;8.63;;;6.18;;
31724;SDS011;18306;40.960;14.836;2024-02-21T09:23:24;7.40;;;4.20;;
31724;SDS011;18306;40.960;14.836;2024-02-21T09:25:51;9.30;;;4.22;;
31724;SDS011;18306;40.960;14.836;2024-02-21T09:28:18;6.85;;;4.28;;
31724;SDS011;18306;40.960;14.836;2024-02-21T09:30:46;8.90;;;5.25;;
31724;SDS011;18306;40.960;14.836;2024-02-21T09:33:17;8.15;;;4.75;;
31724;SDS011;18306;40.960;14.836;2024-02-21T09:35:44;6.88;;;3.75;;
31724;SDS011;18306;40.960;14.836;2024-02-21T09:38:11;6.28;;;3.60;;
31724;SDS011;18306;40.960;14.836;2024-02-21T09:40:38;5.72;;;3.85;;
31724;SDS011;18306;40.960;14.836;2024-02-21T09:43:11;6.95;;;3.75;;
31724;SDS011;18306;40.960;14.836;2024-02-21T09:45:44;7.53;;;4.22;;
31724;SDS011;18306;40.960;14.836;2024-02-21T09:51:02;7.97;;;4.25;;
31724;SDS011;18306;40.960;14.836;2024-02-21T09:53:30;5.15;;;3.75;;
31724;SDS011;18306;40.960;14.836;2024-02-21T09:55:58;7.80;;;4.05;;
31724;SDS011;18306;40.960;14.836;2024-02-21T09:58:26;6.30;;;4.10;;
31724;SDS011;18306;40.960;14.836;2024-02-21T10:00:56;8.40;;;4.22;;
31724;SDS011;18306;40.960;14.836;2024-02-21T10:03:24;10.57;;;3.83;;
31724;SDS011;18306;40.960;14.836;2024-02-21T10:05:51;5.32;;;3.90;;
31724;SDS011;18306;40.960;14.836;2024-02-21T10:08:19;6.45;;;4.00;;
31724;SDS011;18306;40.960;14.836;2024-02-21T10:10:46;5.90;;;4.43;;
31724;SDS011;18306;40.960;14.836;2024-02-21T10:13:26;8.02;;;3.75;;
31724;SDS011;18306;40.960;14.836;2024-02-21T10:16:00;9.75;;;3.97;;
31724;SDS011;18306;40.960;14.836;2024-02-21T10:18:32;5.90;;;4.40;;
31724;SDS011;18306;40.960;14.836;2024-02-21T10:21:03;5.45;;;3.80;;
31724;SDS011;18306;40.960;14.836;2024-02-21T10:23:47;8.10;;;4.63;;
31724;SDS011;18306;40.960;14.836;2024-02-21T10:26:20;7.88;;;3.78;;
31724;SDS011;18306;40.960;14.836;2024-02-21T10:28:48;6.20;;;3.92;;
31724;SDS011;18306;40.960;14.836;2024-02-21T10:31:21;6.65;;;4.03;;
31724;SDS011;18306;40.960;14.836;2024-02-21T10:33:56;4.93;;;3.60;;
31724;SDS011;18306;40.960;14.836;2024-02-21T10:36:24;6.65;;;4.35;;
31724;SDS011;18306;40.960;14.836;2024-02-21T10:38:52;6.18;;;3.65;;
31724;SDS011;18306;40.960;14.836;2024-02-21T10:41:20;4.68;;;3.70;;
31724;SDS011;18306;40.960;14.836;2024-02-21T10:43:52;6.90;;;4.05;;
31724;SDS011;18306;40.960;14.836;2024-02-21T10:46:27;8.27;;;5.10;;
31724;SDS011;18306;40.960;14.836;2024-02-21T10:49:03;7.57;;;5.25;;
31724;SDS011;18306;40.960;14.836;2024-02-21T10:51:45;6.63;;;5.25;;
31724;SDS011;18306;40.960;14.836;2024-02-21T10:56:56;8.38;;;6.10;;
31724;SDS011;18306;40.960;14.836;2024-02-21T10:59:27;13.52;;;10.43;;
31724;SDS011;18306;40.960;14.836;2024-02-21T11:01:57;18.27;;;14.27;;
31724;SDS011;18306;40.960;14.836;2024-02-21T11:04:25;11.88;;;6.22;;
31724;SDS011;18306;40.960;14.836;2024-02-21T11:06:54;7.28;;;4.45;;
31724;SDS011;18306;40.960;14.836;2024-02-21T11:09:29;8.15;;;4.93;;
31724;SDS011;18306;40.960;14.836;2024-02-21T11:12:02;9.32;;;5.20;;
31724;SDS011;18306;40.960;14.836;2024-02-21T11:14:32;10.05;;;6.63;;
31724;SDS011;18306;40.960;14.836;2024-02-21T11:20:22;8.82;;;4.88;;
31724;SDS011;18306;40.960;14.836;2024-02-21T11:23:23;5.50;;;3.97;;
31724;SDS011;18306;40.960;14.836;2024-02-21T11:26:09;6.03;;;4.25;;
31724;SDS011;18306;40.960;14.836;2024-02-21T11:28:37;6.28;;;3.80;;
31724;SDS011;18306;40.960;14.836;2024-02-21T11:31:13;7.80;;;4.28;;
31724;SDS011;18306;40.960;14.836;2024-02-21T11:33:41;5.03;;;3.00;;
31724;SDS011;18306;40.960;14.836;2024-02-21T11:36:08;6.95;;;3.83;;
31724;SDS011;18306;40.960;14.836;2024-02-21T11:38:36;7.13;;;3.72;;
31724;SDS011;18306;40.960;14.836;2024-02-21T11:41:03;7.32;;;4.40;;
31724;SDS011;18306;40.960;14.836;2024-02-21T11:43:35;8.05;;;4.35;;
31724;SDS011;18306;40.960;14.836;2024-02-21T11:46:02;6.32;;;4.45;;
31724;SDS011;18306;40.960;14.836;2024-02-21T11:48:34;11.38;;;4.93;;
31724;SDS011;18306;40.960;14.836;2024-02-21T11:51:01;10.18;;;4.75;;
31724;SDS011;18306;40.960;14.836;2024-02-21T11:53:29;6.57;;;4.05;;
31724;SDS011;18306;40.960;14.836;2024-02-21T11:55:56;7.22;;;4.97;;
31724;SDS011;18306;40.960;14.836;2024-02-21T11:58:24;7.90;;;4.68;;
31724;SDS011;18306;40.960;14.836;2024-02-21T12:00:52;9.63;;;5.82;;
31724;SDS011;18306;40.960;14.836;2024-02-21T12:03:19;8.48;;;4.40;;
31724;SDS011;18306;40.960;14.836;2024-02-21T12:05:46;47.22;;;25.88;;
31724;SDS011;18306;40.960;14.836;2024-02-21T12:08:14;11.23;;;7.88;;
31724;SDS011;18306;40.960;14.836;2024-02-21T12:10:41;26.60;;;16.92;;
31724;SDS011;18306;40.960;14.836;2024-02-21T12:13:10;12.73;;;8.27;;
31724;SDS011;18306;40.960;14.836;2024-02-21T12:15:40;9.02;;;6.10;;
31724;SDS011;18306;40.960;14.836;2024-02-21T12:18:07;9.77;;;5.03;;
31724;SDS011;18306;40.960;14.836;2024-02-21T12:20:36;8.88;;;5.28;;
31724;SDS011;18306;40.960;14.836;2024-02-21T12:23:04;10.02;;;6.18;;
31724;SDS011;18306;40.960;14.836;2024-02-21T12:25:35;6.35;;;4.50;;
31724;SDS011;18306;40.960;14.836;2024-02-21T12:28:03;12.50;;;5.00;;
31724;SDS011;18306;40.960;14.836;2024-02-21T12:30:30;6.63;;;5.55;;
31724;SDS011;18306;40.960;14.836;2024-02-21T12:32:59;8.05;;;5.78;;
31724;SDS011;18306;40.960;14.836;2024-02-21T12:35:28;6.22;;;4.45;;
31724;SDS011;18306;40.960;14.836;2024-02-21T12:37:57;4.90;;;3.13;;
31724;SDS011;18306;40.960;14.836;2024-02-21T12:40:25;5.55;;;3.00;;
31724;SDS011;18306;40.960;14.836;2024-02-21T12:43:01;6.68;;;4.05;;
31724;SDS011;18306;40.960;14.836;2024-02-21T12:45:31;8.45;;;5.40;;
31724;SDS011;18306;40.960;14.836;2024-02-21T12:48:00;7.22;;;3.67;;
31724;SDS011;18306;40.960;14.836;2024-02-21T12:50:48;5.68;;;3.45;;
31724;SDS011;18306;40.960;14.836;2024-02-21T12:53:19;4.95;;;4.25;;
31724;SDS011;18306;40.960;14.836;2024-02-21T12:55:49;6.15;;;3.53;;
31724;SDS011;18306;40.960;14.836;2024-02-21T12:58:17;7.90;;;4.03;;
31724;SDS011;18306;40.960;14.836;2024-02-21T13:00:44;5.55;;;3.22;;
31724;SDS011;18306;40.960;14.836;2024-02-21T13:03:12;6.35;;;3.80;;
31724;SDS011;18306;40.960;14.836;2024-02-21T13:05:44;4.57;;;3.80;;
31724;SDS011;18306;40.960;14.836;2024-02-21T13:08:11;8.93;;;6.75;;
31724;SDS011;18306;40.960;14.836;2024-02-21T13:10:38;5.60;;;4.40;;
31724;SDS011;18306;40.960;14.836;2024-02-21T13:13:05;6.45;;;4.88;;
31724;SDS011;18306;40.960;14.836;2024-02-21T13:15:33;7.80;;;4.55;;
31724;SDS011;18306;40.960;14.836;2024-02-21T13:18:00;6.28;;;3.65;;
31724;SDS011;18306;40.960;14.836;2024-02-21T13:20:27;4.28;;;3.35;;
31724;SDS011;18306;40.960;14.836;2024-02-21T13:22:55;4.82;;;3.13;;
31724;SDS011;18306;40.960;14.836;2024-02-21T13:25:22;4.40;;;3.42;;
31724;SDS011;18306;40.960;14.836;2024-02-21T13:27:54;9.38;;;5.18;;
31724;SDS011;18306;40.960;14.836;2024-02-21T13:30:22;7.03;;;4.60;;
31724;SDS011;18306;40.960;14.836;2024-02-21T13:32:50;10.15;;;5.13;;
31724;SDS011;18306;40.960;14.836;2024-02-21T13:35:21;7.35;;;4.43;;
31724;SDS011;18306;40.960;14.836;2024-02-21T13:37:51;7.65;;;3.83;;
31724;SDS011;18306;40.960;14.836;2024-02-21T13:40:19;5.82;;;3.35;;
31724;SDS011;18306;40.960;14.836;2024-02-21T13:42:45;5.20;;;3.33;;
31724;SDS011;18306;40.960;14.836;2024-02-21T13:45:13;6.65;;;3.60;;
31724;SDS011;18306;40.960;14.836;2024-02-21T13:47:41;3.97;;;3.28;;
31724;SDS011;18306;40.960;14.836;2024-02-21T13:50:08;4.55;;;3.22;;
31724;SDS011;18306;40.960;14.836;2024-02-21T13:52:43;4.75;;;3.17;;
31724;SDS011;18306;40.960;14.836;2024-02-21T13:55:15;4.78;;;3.15;;
31724;SDS011;18306;40.960;14.836;2024-02-21T13:57:42;3.55;;;3.03;;
31724;SDS011;18306;40.960;14.836;2024-02-21T14:00:09;4.25;;;3.35;;
31724;SDS011;18306;40.960;14.836;2024-02-21T14:02:42;7.07;;;5.45;;
31724;SDS011;18306;40.960;14.836;2024-02-21T14:05:09;7.78;;;4.68;;
31724;SDS011;18306;40.960;14.836;2024-02-21T14:07:37;5.00;;;3.85;;
31724;SDS011;18306;40.960;14.836;2024-02-21T14:10:05;8.40;;;4.70;;
31724;SDS011;18306;40.960;14.836;2024-02-21T14:12:33;8.88;;;4.38;;
31724;SDS011;18306;40.960;14.836;2024-02-21T14:15:00;6.90;;;4.93;;
31724;SDS011;18306;40.960;14.836;2024-02-21T14:17:27;4.90;;;3.60;;
31724;SDS011;18306;40.960;14.836;2024-02-21T14:23:00;5.72;;;4.82;;
31724;SDS011;18306;40.960;14.836;2024-02-21T14:25:27;12.25;;;9.52;;
31724;SDS011;18306;40.960;14.836;2024-02-21T14:27:54;9.30;;;5.85;;
31724;SDS011;18306;40.960;14.836;2024-02-21T14:30:21;16.30;;;10.70;;
31724;SDS011;18306;40.960;14.836;2024-02-21T14:32:48;16.58;;;11.63;;
31724;SDS011;18306;40.960;14.836;2024-02-21T14:35:15;13.35;;;10.18;;
31724;SDS011;18306;40.960;14.836;2024-02-21T14:37:42;30.52;;;22.55;;
31724;SDS011;18306;40.960;14.836;2024-02-21T14:40:09;5.05;;;4.05;;
31724;SDS011;18306;40.960;14.836;2024-02-21T14:42:40;10.18;;;5.97;;